createdAt,value
2023-05-18T00:00:45.081Z,3.60
2023-05-18T00:03:12.646Z,3.60
2023-05-18T00:05:39.900Z,3.20
2023-05-18T00:08:08.331Z,3.85
2023-05-18T00:10:36.504Z,3.30
2023-05-18T00:13:05.267Z,3.33
2023-05-18T00:15:32.615Z,3.40
2023-05-18T00:17:59.924Z,3.25
2023-05-18T00:20:27.144Z,3.58
2023-05-18T00:22:54.329Z,3.53
2023-05-18T00:25:21.638Z,3.50
2023-05-18T00:27:49.996Z,3.70
2023-05-18T00:30:17.213Z,3.67
2023-05-18T00:32:44.432Z,3.67
2023-05-18T00:35:11.927Z,3.58
2023-05-18T00:37:39.119Z,3.85
2023-05-18T00:40:07.352Z,3.40
2023-05-18T00:42:34.559Z,3.65
2023-05-18T00:45:01.787Z,3.75
2023-05-18T00:47:28.977Z,4.38
2023-05-18T00:49:56.233Z,3.65
2023-05-18T00:52:24.379Z,3.33
2023-05-18T00:54:52.672Z,3.50
2023-05-18T00:57:20.394Z,4.10
2023-05-18T00:59:48.161Z,3.40
2023-05-18T01:02:15.869Z,3.50
2023-05-18T01:04:43.113Z,3.92
2023-05-18T01:07:11.062Z,3.50
2023-05-18T01:09:38.620Z,4.78
2023-05-18T01:12:40.520Z,4.20
2023-05-18T01:15:18.569Z,3.30
2023-05-18T01:18:05.277Z,3.58
2023-05-18T01:20:59.697Z,3.72
2023-05-18T01:23:48.551Z,3.97
2023-05-18T01:26:32.910Z,3.40
2023-05-18T01:29:06.377Z,4.05
2023-05-18T01:31:34.604Z,4.05
2023-05-18T01:34:02.183Z,4.60
2023-05-18T01:36:29.476Z,4.47
2023-05-18T01:39:01.418Z,4.20
2023-05-18T01:41:31.656Z,4.10
2023-05-18T01:44:15.920Z,4.68
2023-05-18T01:47:01.238Z,4.38
2023-05-18T01:49:36.151Z,4.03
2023-05-18T01:52:18.624Z,4.13
2023-05-18T01:54:53.891Z,3.50
2023-05-18T01:57:27.230Z,4.18
2023-05-18T01:59:55.374Z,4.20
2023-05-18T02:02:22.578Z,4.25
2023-05-18T02:04:49.903Z,4.32
2023-05-18T02:07:17.116Z,4.35
2023-05-18T02:09:44.644Z,4.93
2023-05-18T02:12:11.913Z,4.68
2023-05-18T02:14:39.088Z,4.32
2023-05-18T02:17:07.176Z,4.03
2023-05-18T02:19:38.084Z,4.20
2023-05-18T02:22:09.761Z,4.07
2023-05-18T02:24:36.964Z,4.47
2023-05-18T02:27:05.821Z,4.38
2023-05-18T02:29:33.028Z,4.53
2023-05-18T02:32:00.284Z,4.70
2023-05-18T02:34:27.524Z,4.38
2023-05-18T02:36:57.876Z,3.60
2023-05-18T02:39:25.272Z,4.13
2023-05-18T02:41:52.425Z,4.57
2023-05-18T02:44:19.638Z,4.28
2023-05-18T02:46:46.810Z,4.15
2023-05-18T02:49:14.007Z,4.20
2023-05-18T02:51:41.244Z,4.43
2023-05-18T02:54:08.418Z,4.93
2023-05-18T02:56:35.695Z,4.60
2023-05-18T02:59:03.979Z,5.38
2023-05-18T03:01:31.306Z,5.65
2023-05-18T03:03:58.546Z,4.90
2023-05-18T03:06:27.211Z,4.93
2023-05-18T03:08:54.598Z,4.90
2023-05-18T03:11:23.266Z,4.82
2023-05-18T03:13:50.735Z,5.40
2023-05-18T03:16:18.655Z,5.72
2023-05-18T03:18:46.125Z,4.90
2023-05-18T03:21:16.571Z,5.20
2023-05-18T03:23:43.770Z,5.95
2023-05-18T03:26:12.324Z,5.53
2023-05-18T03:28:39.575Z,5.28
2023-05-18T03:31:06.872Z,4.70
2023-05-18T03:33:34.173Z,5.30
2023-05-18T03:36:04.599Z,5.75
2023-05-18T03:38:31.926Z,6.10
2023-05-18T03:40:59.157Z,5.60
2023-05-18T03:43:26.418Z,5.15
2023-05-18T03:45:53.797Z,4.93
2023-05-18T03:48:22.825Z,5.43
2023-05-18T03:50:50.447Z,5.90
2023-05-18T03:53:19.220Z,5.40
2023-05-18T03:55:49.146Z,5.50
2023-05-18T03:58:16.460Z,5.13
2023-05-18T04:00:43.670Z,5.60
2023-05-18T04:03:14.510Z,6.03
2023-05-18T04:05:45.964Z,6.40
2023-05-18T04:08:14.643Z,5.70
2023-05-18T04:10:43.433Z,6.38
2023-05-18T04:13:11.030Z,6.50
2023-05-18T04:15:38.465Z,6.05
2023-05-18T04:18:05.794Z,5.90
2023-05-18T04:20:33.064Z,6.55
2023-05-18T04:23:00.246Z,5.93
2023-05-18T04:25:28.268Z,5.60
2023-05-18T04:27:57.192Z,6.18
2023-05-18T04:30:27.376Z,6.32
2023-05-18T04:32:54.765Z,6.07
2023-05-18T04:35:22.131Z,6.20
2023-05-18T04:37:49.296Z,6.32
2023-05-18T04:40:17.562Z,6.35
2023-05-18T04:42:45.725Z,6.53
2023-05-18T04:45:16.595Z,6.35
2023-05-18T04:47:46.511Z,6.20
2023-05-18T04:50:15.985Z,6.68
2023-05-18T04:52:48.998Z,6.32
2023-05-18T04:55:26.366Z,7.05
2023-05-18T04:57:56.663Z,6.45
2023-05-18T05:00:26.794Z,6.60
2023-05-18T05:02:55.264Z,6.63
2023-05-18T05:05:23.635Z,7.10
2023-05-18T05:07:52.163Z,7.22
2023-05-18T05:10:20.746Z,7.55
2023-05-18T05:12:50.987Z,7.18
2023-05-18T05:15:18.894Z,7.03
2023-05-18T05:17:49.566Z,7.35
2023-05-18T05:20:17.805Z,7.07
2023-05-18T05:22:45.301Z,6.03
2023-05-18T05:25:12.610Z,5.40
2023-05-18T05:27:40.026Z,6.00
2023-05-18T05:30:08.147Z,5.25
2023-05-18T05:32:36.513Z,5.43
2023-05-18T05:35:04.377Z,5.10
2023-05-18T05:37:31.691Z,5.00
2023-05-18T05:39:59.349Z,5.72
2023-05-18T05:42:27.058Z,5.70
2023-05-18T05:44:54.255Z,5.65
2023-05-18T05:47:21.626Z,5.85
2023-05-18T05:49:48.903Z,5.85
2023-05-18T05:52:16.112Z,5.60
2023-05-18T05:54:43.321Z,5.38
2023-05-18T05:57:10.668Z,5.63
2023-05-18T05:59:37.884Z,6.35
2023-05-18T06:02:05.409Z,5.85
2023-05-18T06:04:32.797Z,6.28
2023-05-18T06:07:00.019Z,5.80
2023-05-18T06:09:27.176Z,5.60
2023-05-18T06:11:55.137Z,6.75
2023-05-18T06:14:22.322Z,5.90
2023-05-18T06:16:49.588Z,5.70
2023-05-18T06:19:16.912Z,6.15
2023-05-18T06:21:44.079Z,5.57
2023-05-18T06:24:11.471Z,5.72
2023-05-18T06:26:38.707Z,5.53
2023-05-18T06:29:05.871Z,5.47
2023-05-18T06:31:33.236Z,4.70
2023-05-18T06:34:00.641Z,4.60
2023-05-18T06:36:27.937Z,4.80
2023-05-18T06:38:55.135Z,4.85
2023-05-18T06:41:22.339Z,4.68
2023-05-18T06:43:50.649Z,4.20
2023-05-18T06:46:22.790Z,4.22
2023-05-18T06:48:50.001Z,3.73
2023-05-18T06:51:17.361Z,4.28
2023-05-18T06:53:44.660Z,3.90
2023-05-18T06:56:13.095Z,4.03
2023-05-18T06:58:42.138Z,3.35
2023-05-18T07:01:11.058Z,3.40
2023-05-18T07:03:38.559Z,3.40
2023-05-18T07:06:06.431Z,2.92
2023-05-18T07:08:33.857Z,3.53
2023-05-18T07:11:02.389Z,3.03
2023-05-18T07:13:30.314Z,3.97
2023-05-18T07:15:58.169Z,3.38
2023-05-18T07:18:26.505Z,3.58
2023-05-18T07:20:53.797Z,3.60
2023-05-18T07:23:21.326Z,3.67
2023-05-18T07:25:49.131Z,4.50
2023-05-18T07:28:17.064Z,3.45
2023-05-18T07:30:44.315Z,3.72
2023-05-18T07:33:11.558Z,3.05
2023-05-18T07:35:38.909Z,3.17
2023-05-18T07:38:06.093Z,3.08
2023-05-18T07:40:33.286Z,2.90
2023-05-18T07:43:00.490Z,2.92
2023-05-18T07:45:27.665Z,2.80
2023-05-18T07:47:55.027Z,2.67
2023-05-18T07:50:22.533Z,2.97
2023-05-18T07:52:49.742Z,2.88
2023-05-18T07:55:17.441Z,3.03
2023-05-18T07:57:44.629Z,2.92
2023-05-18T08:00:12.727Z,2.58
2023-05-18T08:02:40.105Z,2.42
2023-05-18T08:05:09.431Z,2.78
2023-05-18T08:07:37.438Z,3.03
2023-05-18T08:10:05.709Z,2.92
2023-05-18T08:12:32.892Z,2.90
2023-05-18T08:15:00.212Z,3.00
2023-05-18T08:17:27.415Z,2.47
2023-05-18T08:19:54.766Z,2.78
2023-05-18T08:22:22.003Z,3.00
2023-05-18T08:24:49.225Z,2.88
2023-05-18T08:27:16.579Z,3.22
2023-05-18T08:29:43.764Z,3.00
2023-05-18T08:32:11.281Z,3.08
2023-05-18T08:34:38.503Z,2.70
2023-05-18T08:37:05.663Z,2.80
2023-05-18T08:39:32.934Z,3.00
2023-05-18T08:42:10.968Z,2.60
2023-05-18T08:45:00.073Z,3.17
2023-05-18T08:47:29.806Z,2.70
2023-05-18T08:49:58.374Z,2.95
2023-05-18T08:52:28.074Z,2.95
2023-05-18T08:54:59.961Z,2.97
2023-05-18T08:57:30.650Z,2.70
2023-05-18T09:00:00.542Z,2.97
2023-05-18T09:02:29.149Z,3.20
2023-05-18T09:04:57.094Z,3.05
2023-05-18T09:07:27.524Z,2.90
2023-05-18T09:09:56.972Z,2.70
2023-05-18T09:12:26.699Z,3.25
2023-05-18T09:14:54.862Z,2.83
2023-05-18T09:17:23.856Z,4.43
2023-05-18T09:19:51.157Z,2.70
2023-05-18T09:22:18.435Z,2.92
2023-05-18T09:24:45.648Z,2.70
2023-05-18T09:27:12.992Z,2.50
2023-05-18T09:29:54.075Z,2.53
2023-05-18T09:32:25.995Z,2.92
2023-05-18T09:34:53.863Z,2.80
2023-05-18T09:37:22.080Z,2.92
2023-05-18T09:40:08.260Z,3.08
2023-05-18T09:42:42.305Z,2.80
2023-05-18T09:45:23.767Z,2.95
2023-05-18T09:47:51.791Z,2.78
2023-05-18T09:50:21.368Z,2.80
2023-05-18T09:52:50.069Z,6.22
2023-05-18T09:55:19.900Z,4.10
2023-05-18T09:57:50.121Z,2.90
2023-05-18T10:00:20.769Z,2.92
2023-05-18T10:02:52.500Z,2.97
2023-05-18T10:05:24.487Z,2.80
2023-05-18T10:07:52.055Z,2.50
2023-05-18T10:10:25.339Z,3.10
2023-05-18T10:12:54.631Z,2.63
2023-05-18T10:15:23.829Z,3.00
2023-05-18T10:17:56.199Z,3.22
2023-05-18T10:20:26.575Z,3.75
2023-05-18T10:22:56.748Z,2.80
2023-05-18T10:25:27.080Z,2.47
2023-05-18T10:28:06.015Z,3.25
2023-05-18T10:30:35.118Z,2.78
2023-05-18T10:33:03.927Z,2.97
2023-05-18T10:35:38.284Z,3.05
2023-05-18T10:38:07.239Z,2.60
2023-05-18T10:40:36.087Z,2.97
2023-05-18T10:43:04.587Z,3.17
2023-05-18T10:45:37.281Z,2.97
2023-05-18T10:50:33.028Z,2.88
2023-05-18T10:53:01.373Z,2.58
2023-05-18T10:55:29.636Z,3.13
2023-05-18T10:58:05.390Z,3.00
2023-05-18T11:00:36.596Z,2.75
2023-05-18T11:03:08.409Z,2.40
2023-05-18T11:05:35.782Z,2.50
2023-05-18T11:08:05.431Z,2.63
2023-05-18T11:10:47.028Z,3.08
2023-05-18T11:13:15.332Z,3.20
2023-05-18T11:15:55.110Z,3.42
2023-05-18T11:18:42.214Z,2.50
2023-05-18T11:21:21.311Z,2.80
2023-05-18T11:24:28.768Z,2.55
2023-05-18T11:27:07.318Z,2.50
2023-05-18T11:29:40.918Z,2.47
2023-05-18T11:32:30.542Z,2.42
2023-05-18T11:34:59.830Z,2.70
2023-05-18T11:37:38.974Z,2.30
2023-05-18T11:40:30.173Z,2.05
2023-05-18T11:42:58.602Z,2.25
2023-05-18T11:45:26.326Z,2.83
2023-05-18T11:48:01.681Z,2.55
2023-05-18T11:50:30.894Z,2.50
2023-05-18T11:52:59.561Z,2.40
2023-05-18T11:55:38.984Z,2.67
2023-05-18T11:58:08.830Z,2.35
2023-05-18T12:00:37.411Z,2.58
2023-05-18T12:03:06.101Z,2.75
2023-05-18T12:05:36.520Z,2.45
2023-05-18T12:08:04.351Z,2.45
2023-05-18T12:10:34.473Z,2.10
2023-05-18T12:13:02.372Z,2.47
2023-05-18T12:15:30.479Z,3.83
2023-05-18T12:17:58.972Z,2.80
2023-05-18T12:20:27.236Z,2.70
2023-05-18T12:22:55.863Z,2.70
2023-05-18T12:25:27.904Z,4.60
2023-05-18T12:27:56.764Z,2.70
2023-05-18T12:30:34.817Z,3.15
2023-05-18T12:33:03.150Z,3.70
2023-05-18T12:35:32.204Z,2.80
2023-05-18T12:38:00.672Z,2.55
2023-05-18T12:40:46.370Z,3.60
2023-05-18T12:43:13.732Z,11.52
2023-05-18T12:45:44.361Z,4.20
2023-05-18T12:48:13.525Z,6.30
2023-05-18T12:50:49.200Z,2.50
2023-05-18T12:53:18.243Z,3.22
2023-05-18T12:55:45.616Z,2.20
2023-05-18T12:58:17.794Z,2.65
2023-05-18T13:00:47.105Z,2.20
2023-05-18T13:03:21.988Z,2.40
2023-05-18T13:06:05.999Z,2.60
2023-05-18T13:08:35.290Z,2.65
2023-05-18T13:11:14.788Z,2.45
2023-05-18T13:14:04.446Z,2.70
2023-05-18T13:16:34.821Z,3.00
2023-05-18T13:19:06.948Z,2.53
2023-05-18T13:21:35.775Z,2.20
2023-05-18T13:24:04.658Z,2.40
2023-05-18T13:26:32.872Z,2.72
2023-05-18T13:29:00.395Z,2.50
2023-05-18T13:31:29.485Z,2.55
2023-05-18T13:33:57.236Z,2.47
2023-05-18T13:36:24.669Z,2.95
2023-05-18T13:38:52.327Z,2.47
2023-05-18T13:41:19.649Z,2.38
2023-05-18T13:43:46.859Z,2.30
2023-05-18T13:46:14.157Z,2.70
2023-05-18T13:48:41.401Z,2.80
2023-05-18T13:51:08.667Z,3.42
2023-05-18T13:53:38.038Z,3.13
2023-05-18T13:56:06.063Z,3.55
2023-05-18T13:58:33.262Z,2.65
2023-05-18T14:01:03.877Z,2.40
2023-05-18T14:03:33.894Z,2.60
2023-05-18T14:06:01.175Z,2.65
2023-05-18T14:08:28.359Z,2.85
2023-05-18T14:10:55.529Z,3.28
2023-05-18T14:13:22.727Z,2.58
2023-05-18T14:15:49.884Z,2.38
2023-05-18T14:18:17.274Z,2.70
2023-05-18T14:20:44.763Z,2.30
2023-05-18T14:23:11.952Z,2.47
2023-05-18T14:25:39.126Z,2.40
2023-05-18T14:28:06.311Z,2.20
2023-05-18T14:30:33.587Z,2.78
2023-05-18T14:33:01.383Z,2.70
2023-05-18T14:35:28.700Z,2.70
2023-05-18T14:37:55.896Z,2.50
2023-05-18T14:40:23.088Z,2.95
2023-05-18T14:42:52.901Z,2.78
2023-05-18T14:45:21.161Z,2.60
2023-05-18T14:47:48.440Z,3.08
2023-05-18T14:50:16.561Z,2.72
2023-05-18T14:52:43.794Z,2.45
2023-05-18T14:55:11.000Z,2.47
2023-05-18T14:57:38.180Z,3.20
2023-05-18T15:00:06.165Z,2.70
2023-05-18T15:02:33.482Z,2.35
2023-05-18T15:05:00.808Z,2.20
2023-05-18T15:07:28.065Z,2.40
2023-05-18T15:09:55.419Z,2.20
2023-05-18T15:12:23.303Z,2.67
2023-05-18T15:14:50.615Z,2.67
2023-05-18T15:17:17.959Z,2.60
2023-05-18T15:19:45.309Z,2.78
2023-05-18T15:22:12.654Z,2.75
2023-05-18T15:24:39.882Z,2.08
2023-05-18T15:27:07.115Z,2.92
2023-05-18T15:29:35.696Z,2.53
2023-05-18T15:32:02.977Z,2.30
2023-05-18T15:34:33.255Z,2.53
2023-05-18T15:37:01.431Z,2.55
2023-05-18T15:39:28.876Z,2.30
2023-05-18T15:41:56.340Z,2.30
2023-05-18T15:44:23.632Z,2.38
2023-05-18T15:46:50.885Z,2.60
2023-05-18T15:49:18.787Z,2.42
2023-05-18T15:51:45.974Z,2.90
2023-05-18T15:54:13.156Z,2.97
2023-05-18T15:56:40.847Z,2.50
2023-05-18T15:59:08.598Z,2.15
2023-05-18T16:01:37.195Z,2.25
2023-05-18T16:04:04.977Z,2.17
2023-05-18T16:06:35.281Z,2.55
2023-05-18T16:09:03.034Z,2.30
2023-05-18T16:11:30.362Z,2.63
2023-05-18T16:13:57.550Z,2.30
2023-05-18T16:16:26.554Z,2.53
2023-05-18T16:18:54.159Z,2.17
2023-05-18T16:21:22.332Z,2.40
2023-05-18T16:23:49.570Z,2.50
2023-05-18T16:26:16.834Z,2.15
2023-05-18T16:28:44.016Z,2.42
2023-05-18T16:31:12.197Z,2.40
2023-05-18T16:33:39.863Z,2.50
2023-05-18T16:36:07.885Z,2.20
2023-05-18T16:38:37.152Z,2.33
2023-05-18T16:41:07.789Z,2.30
2023-05-18T16:43:35.760Z,2.40
2023-05-18T16:46:02.977Z,2.10
2023-05-18T16:48:30.201Z,2.38
2023-05-18T16:50:57.537Z,2.42
2023-05-18T16:53:24.737Z,2.70
2023-05-18T16:55:52.367Z,2.33
2023-05-18T16:58:19.856Z,2.40
2023-05-18T17:00:47.038Z,2.42
2023-05-18T17:03:17.157Z,2.80
2023-05-18T17:05:45.094Z,2.33
2023-05-18T17:08:13.103Z,2.20
2023-05-18T17:10:41.028Z,2.10
2023-05-18T17:13:08.401Z,2.88
2023-05-18T17:15:35.981Z,2.25
2023-05-18T17:18:03.246Z,2.42
2023-05-18T17:20:30.757Z,2.92
2023-05-18T17:22:59.877Z,2.92
2023-05-18T17:25:28.426Z,2.60
2023-05-18T17:27:55.622Z,2.65
2023-05-18T17:30:22.797Z,2.83
2023-05-18T17:32:50.951Z,2.42
2023-05-18T17:35:18.300Z,2.53
2023-05-18T17:37:46.473Z,2.60
2023-05-18T17:40:13.775Z,2.40
2023-05-18T17:42:40.983Z,2.38
2023-05-18T17:45:09.143Z,2.58
2023-05-18T17:47:38.075Z,2.13
2023-05-18T17:50:06.064Z,2.58
2023-05-18T17:52:33.253Z,2.80
2023-05-18T17:55:00.544Z,2.53
2023-05-18T17:57:29.170Z,2.17
2023-05-18T17:59:56.431Z,2.67
2023-05-18T18:02:23.619Z,2.40
2023-05-18T18:04:50.883Z,2.28
2023-05-18T18:07:18.091Z,2.40
2023-05-18T18:09:46.287Z,3.10
2023-05-18T18:12:13.497Z,2.97
2023-05-18T18:14:40.797Z,3.75
2023-05-18T18:17:08.115Z,3.58
2023-05-18T18:19:35.593Z,2.95
2023-05-18T18:22:03.033Z,3.22
2023-05-18T18:24:30.319Z,3.00
2023-05-18T18:26:57.527Z,4.93
2023-05-18T18:29:25.972Z,4.35
2023-05-18T18:31:53.240Z,3.72
2023-05-18T18:34:20.466Z,2.75
2023-05-18T18:36:47.734Z,2.53
2023-05-18T18:39:14.921Z,2.90
2023-05-18T18:41:42.535Z,2.53
2023-05-18T18:44:09.860Z,2.50
2023-05-18T18:46:37.119Z,3.33
2023-05-18T18:49:04.339Z,2.40
2023-05-18T18:51:31.569Z,2.58
2023-05-18T18:53:58.754Z,2.55
2023-05-18T18:56:27.271Z,2.63
2023-05-18T18:58:54.468Z,3.22
2023-05-18T19:01:21.704Z,2.90
2023-05-18T19:03:48.941Z,3.35
2023-05-18T19:06:17.290Z,2.70
2023-05-18T19:08:44.559Z,3.20
2023-05-18T19:11:11.742Z,3.10
2023-05-18T19:13:38.940Z,2.67
2023-05-18T19:16:06.570Z,3.05
2023-05-18T19:18:33.799Z,2.63
2023-05-18T19:21:01.408Z,3.28
2023-05-18T19:23:28.707Z,2.53
2023-05-18T19:25:56.000Z,3.50
2023-05-18T19:28:23.339Z,4.82
2023-05-18T19:30:50.539Z,3.60
2023-05-18T19:33:17.757Z,3.38
2023-05-18T19:35:45.515Z,3.95
2023-05-18T19:38:12.775Z,3.58
2023-05-18T19:40:39.976Z,3.47
2023-05-18T19:43:07.403Z,3.47
2023-05-18T19:45:35.054Z,3.72
2023-05-18T19:48:02.640Z,3.58
2023-05-18T19:50:29.853Z,4.50
2023-05-18T19:52:57.051Z,3.95
2023-05-18T19:55:24.326Z,3.72
2023-05-18T19:57:51.999Z,3.83
2023-05-18T20:00:19.227Z,3.42
2023-05-18T20:02:46.461Z,3.35
2023-05-18T20:05:18.121Z,3.30
2023-05-18T20:07:45.627Z,2.83
2023-05-18T20:10:12.862Z,3.70
2023-05-18T20:12:40.039Z,5.97
2023-05-18T20:15:08.699Z,4.85
2023-05-18T20:17:37.231Z,4.32
2023-05-18T20:20:06.073Z,4.13
2023-05-18T20:22:33.255Z,3.40
2023-05-18T20:25:01.261Z,3.30
2023-05-18T20:27:28.522Z,3.60
2023-05-18T20:29:56.154Z,3.00
2023-05-18T20:32:23.381Z,3.58
2023-05-18T20:34:50.604Z,3.53
2023-05-18T20:37:19.395Z,3.17
2023-05-18T20:39:51.154Z,2.95
2023-05-18T20:42:22.336Z,3.33
2023-05-18T20:44:52.572Z,3.30
2023-05-18T20:47:20.788Z,3.15
2023-05-18T20:49:48.508Z,3.50
2023-05-18T20:52:15.892Z,3.25
2023-05-18T20:54:43.668Z,3.10
2023-05-18T20:57:10.919Z,3.47
2023-05-18T20:59:38.119Z,3.10
2023-05-18T21:02:05.393Z,3.10
2023-05-18T21:04:32.837Z,3.50
2023-05-18T21:07:00.030Z,3.53
2023-05-18T21:09:27.357Z,3.50
2023-05-18T21:11:54.589Z,3.33
2023-05-18T21:14:21.771Z,3.33
2023-05-18T21:16:48.994Z,4.25
2023-05-18T21:19:16.437Z,3.83
2023-05-18T21:21:43.850Z,3.88
2023-05-18T21:24:11.021Z,3.55
2023-05-18T21:26:38.349Z,3.50
2023-05-18T21:29:06.318Z,3.95
2023-05-18T21:31:33.655Z,3.67
2023-05-18T21:34:00.926Z,4.43
2023-05-18T21:36:34.186Z,4.00
2023-05-18T21:39:04.473Z,3.90
2023-05-18T21:41:35.080Z,4.13
2023-05-18T21:44:02.283Z,4.15
2023-05-18T21:46:29.662Z,4.35
2023-05-18T21:48:57.310Z,3.92
2023-05-18T21:51:25.383Z,4.45
2023-05-18T21:53:52.645Z,4.43
2023-05-18T21:56:20.178Z,4.60
2023-05-18T21:58:47.382Z,5.03
2023-05-18T22:01:19.455Z,4.38
2023-05-18T22:03:50.816Z,4.70
2023-05-18T22:06:18.479Z,4.68
2023-05-18T22:08:46.972Z,4.30
2023-05-18T22:11:14.961Z,4.50
2023-05-18T22:13:42.152Z,4.70
2023-05-18T22:16:09.389Z,4.60
2023-05-18T22:18:36.676Z,4.20
2023-05-18T22:21:04.194Z,4.47
2023-05-18T22:23:31.385Z,4.70
2023-05-18T22:25:58.554Z,4.15
2023-05-18T22:28:26.000Z,4.30
2023-05-18T22:30:53.339Z,4.20
2023-05-18T22:33:23.525Z,4.25
2023-05-18T22:35:50.696Z,4.10
2023-05-18T22:38:17.980Z,4.40
2023-05-18T22:40:45.438Z,3.72
2023-05-18T22:43:12.725Z,4.80
2023-05-18T22:45:39.966Z,4.70
2023-05-18T22:48:07.197Z,3.70
2023-05-18T22:50:35.139Z,4.05
2023-05-18T22:53:02.661Z,4.32
2023-05-18T22:55:30.410Z,4.13
2023-05-18T22:57:57.587Z,4.18
2023-05-18T23:00:24.813Z,4.30
2023-05-18T23:02:52.955Z,4.18
2023-05-18T23:05:20.401Z,4.40
2023-05-18T23:07:47.647Z,4.07
2023-05-18T23:10:14.885Z,4.43
2023-05-18T23:12:42.082Z,4.63
2023-05-18T23:15:10.716Z,4.03
2023-05-18T23:17:39.512Z,4.32
2023-05-18T23:20:08.109Z,4.03
2023-05-18T23:22:35.394Z,4.75
2023-05-18T23:25:04.607Z,4.18
2023-05-18T23:27:31.986Z,4.15
2023-05-18T23:29:59.330Z,4.30
2023-05-18T23:32:27.204Z,4.20
2023-05-18T23:34:56.199Z,5.22
2023-05-18T23:37:26.183Z,4.57
2023-05-18T23:39:56.339Z,4.25
2023-05-18T23:42:25.545Z,5.38
2023-05-18T23:44:53.249Z,4.03
2023-05-18T23:47:20.782Z,4.40
2023-05-18T23:49:48.507Z,4.13
2023-05-18T23:52:21.225Z,4.35
2023-05-18T23:54:53.369Z,4.63
2023-05-18T23:57:21.049Z,4.43
2023-05-18T23:59:50.575Z,4.10
